createdAt,value
2022-07-25T00:00:11.802Z,22.46
2022-07-25T00:01:14.172Z,22.74
2022-07-25T00:02:12.537Z,22.26
2022-07-25T00:03:14.493Z,22.45
2022-07-25T00:04:12.745Z,22.92
2022-07-25T00:05:10.825Z,22.89
2022-07-25T00:06:17.682Z,23.10
2022-07-25T00:07:10.678Z,23.13
2022-07-25T00:08:11.424Z,22.82
2022-07-25T00:09:11.353Z,23.26
2022-07-25T00:10:10.804Z,23.55
2022-07-25T00:11:11.277Z,23.28
2022-07-25T00:12:11.022Z,23.06
2022-07-25T00:13:10.630Z,21.27
2022-07-25T00:14:11.739Z,21.84
2022-07-25T00:15:11.488Z,22.27
2022-07-25T00:16:10.950Z,22.55
2022-07-25T00:17:10.657Z,22.20
2022-07-25T00:18:11.617Z,22.06
2022-07-25T00:19:11.214Z,21.45
2022-07-25T00:20:10.946Z,21.54
2022-07-25T00:21:11.442Z,22.04
2022-07-25T00:22:11.020Z,22.03
2022-07-25T00:23:10.567Z,21.89
2022-07-25T00:24:12.754Z,21.59
2022-07-25T00:25:11.519Z,21.40
2022-07-25T00:26:10.975Z,21.80
2022-07-25T00:27:11.681Z,22.18
2022-07-25T00:28:11.745Z,22.09
2022-07-25T00:29:11.401Z,21.48
2022-07-25T00:30:11.355Z,21.45
2022-07-25T00:31:11.091Z,21.57
2022-07-25T00:32:10.726Z,21.62
2022-07-25T00:33:11.115Z,21.70
2022-07-25T00:34:11.295Z,21.78
2022-07-25T00:35:10.804Z,21.83
2022-07-25T00:36:11.422Z,21.94
2022-07-25T00:37:10.546Z,21.79
2022-07-25T00:38:11.072Z,21.76
2022-07-25T00:39:11.065Z,21.95
2022-07-25T00:40:10.899Z,22.19
2022-07-25T00:41:11.118Z,21.92
2022-07-25T00:42:11.012Z,21.94
2022-07-25T00:43:10.601Z,21.81
2022-07-25T00:44:11.764Z,21.32
2022-07-25T00:45:11.353Z,21.18
2022-07-25T00:46:12.151Z,21.53
2022-07-25T00:47:10.781Z,21.63
2022-07-25T00:48:11.262Z,21.90
2022-07-25T00:49:11.123Z,21.78
2022-07-25T00:50:11.398Z,21.62
2022-07-25T00:51:10.647Z,21.64
2022-07-25T00:52:10.995Z,21.78
2022-07-25T00:53:10.555Z,21.80
2022-07-25T00:54:11.956Z,21.97
2022-07-25T00:55:12.089Z,21.58
2022-07-25T00:56:10.644Z,21.56
2022-07-25T00:57:11.125Z,21.44
2022-07-25T00:58:10.700Z,21.29
2022-07-25T00:59:11.074Z,21.33
2022-07-25T01:00:11.727Z,21.41
2022-07-25T01:01:11.780Z,21.12
2022-07-25T01:02:11.352Z,21.34
2022-07-25T01:03:10.876Z,21.28
2022-07-25T01:04:12.229Z,21.45
2022-07-25T01:05:14.073Z,21.38
2022-07-25T01:06:10.671Z,21.29
2022-07-25T01:07:11.106Z,21.44
2022-07-25T01:08:10.637Z,21.46
2022-07-25T01:09:11.217Z,21.49
2022-07-25T01:10:10.909Z,21.59
2022-07-25T01:11:11.226Z,21.51
2022-07-25T01:12:10.751Z,21.80
2022-07-25T01:13:11.110Z,21.90
2022-07-25T01:14:11.517Z,22.05
2022-07-25T01:15:11.003Z,22.54
2022-07-25T01:16:10.629Z,21.90
2022-07-25T01:17:10.946Z,21.79
2022-07-25T01:18:11.277Z,21.93
2022-07-25T01:19:13.727Z,21.76
2022-07-25T01:20:11.147Z,22.17
2022-07-25T01:21:10.842Z,21.90
2022-07-25T01:22:11.221Z,21.77
2022-07-25T01:23:10.652Z,21.87
2022-07-25T01:24:12.038Z,22.01
2022-07-25T01:25:11.088Z,22.17
2022-07-25T01:26:10.566Z,22.32
2022-07-25T01:27:20.332Z,21.67
2022-07-25T01:28:10.682Z,21.67
2022-07-25T01:29:11.007Z,21.73
2022-07-25T01:30:11.034Z,21.73
2022-07-25T01:31:10.792Z,21.87
2022-07-25T01:32:11.072Z,21.73
2022-07-25T01:33:10.799Z,21.85
2022-07-25T01:34:11.881Z,21.46
2022-07-25T01:35:11.678Z,21.30
2022-07-25T01:36:10.990Z,21.49
2022-07-25T01:37:10.669Z,21.95
2022-07-25T01:38:11.021Z,21.97
2022-07-25T01:39:10.841Z,22.23
2022-07-25T01:40:11.317Z,22.06
2022-07-25T01:41:11.093Z,22.02
2022-07-25T01:42:11.006Z,22.14
2022-07-25T01:43:10.502Z,21.71
2022-07-25T01:44:11.356Z,21.88
2022-07-25T01:45:10.721Z,21.83
2022-07-25T01:46:11.083Z,21.65
2022-07-25T01:47:10.693Z,22.88
2022-07-25T01:48:11.141Z,23.85
2022-07-25T01:49:11.149Z,24.21
2022-07-25T01:50:11.159Z,24.37
2022-07-25T01:51:14.746Z,23.40
2022-07-25T01:52:11.230Z,23.45
2022-07-25T01:53:11.179Z,23.48
2022-07-25T01:54:14.483Z,23.90
2022-07-25T01:55:10.838Z,23.27
2022-07-25T01:56:14.082Z,23.52
2022-07-25T01:57:11.477Z,23.52
2022-07-25T01:58:11.650Z,23.10
2022-07-25T01:59:10.855Z,23.07
2022-07-25T02:00:12.443Z,23.01
2022-07-25T02:01:11.290Z,22.86
2022-07-25T02:02:10.679Z,23.29
2022-07-25T02:03:11.109Z,23.43
2022-07-25T02:04:11.928Z,23.63
2022-07-25T02:05:10.656Z,23.62
2022-07-25T02:06:11.520Z,24.11
2022-07-25T02:07:10.999Z,23.92
2022-07-25T02:08:13.434Z,24.03
2022-07-25T02:09:10.516Z,24.09
2022-07-25T02:10:11.497Z,23.37
2022-07-25T02:11:10.891Z,23.63
2022-07-25T02:12:11.189Z,23.69
2022-07-25T02:13:10.613Z,23.79
2022-07-25T02:14:11.525Z,24.43
2022-07-25T02:15:11.071Z,23.79
2022-07-25T02:16:10.794Z,23.87
2022-07-25T02:17:11.242Z,23.70
2022-07-25T02:18:10.808Z,23.92
2022-07-25T02:19:11.186Z,23.85
2022-07-25T02:20:10.816Z,23.64
2022-07-25T02:21:18.048Z,23.43
2022-07-25T02:22:10.506Z,23.34
2022-07-25T02:23:11.575Z,23.51
2022-07-25T02:24:11.993Z,23.63
2022-07-25T02:25:10.749Z,23.67
2022-07-25T02:26:11.722Z,23.62
2022-07-25T02:27:11.167Z,23.94
2022-07-25T02:28:14.558Z,23.88
2022-07-25T02:29:11.518Z,23.78
2022-07-25T02:30:11.612Z,24.37
2022-07-25T02:31:11.334Z,24.61
2022-07-25T02:32:10.868Z,24.37
2022-07-25T02:33:11.381Z,24.48
2022-07-25T02:34:11.355Z,24.51
2022-07-25T02:35:16.869Z,24.12
2022-07-25T02:36:11.083Z,23.55
2022-07-25T02:37:10.777Z,23.76
2022-07-25T02:38:11.035Z,23.67
2022-07-25T02:39:10.827Z,23.63
2022-07-25T02:40:11.565Z,22.39
2022-07-25T02:41:11.034Z,22.45
2022-07-25T02:42:10.708Z,23.29
2022-07-25T02:43:11.554Z,23.40
2022-07-25T02:44:11.741Z,23.39
2022-07-25T02:45:11.510Z,22.19
2022-07-25T02:46:11.628Z,22.07
2022-07-25T02:47:11.312Z,22.12
2022-07-25T02:48:10.825Z,22.72
2022-07-25T02:49:11.589Z,23.35
2022-07-25T02:50:14.566Z,23.59
2022-07-25T02:51:10.719Z,23.65
2022-07-25T02:52:11.219Z,23.98
2022-07-25T02:53:11.082Z,23.81
2022-07-25T02:54:11.206Z,23.36
2022-07-25T02:55:13.427Z,23.78
2022-07-25T02:56:11.078Z,23.93
2022-07-25T02:57:11.949Z,23.37
2022-07-25T02:58:11.457Z,22.92
2022-07-25T02:59:11.096Z,19
2022-07-25T03:00:11.769Z,22.88
2022-07-25T03:01:11.607Z,22.79
2022-07-25T03:02:11.220Z,22.62
2022-07-25T03:03:11.457Z,22.19
2022-07-25T03:04:11.992Z,22.03
2022-07-25T03:05:12.056Z,22.11
2022-07-25T03:06:10.800Z,22.27
2022-07-25T03:07:11.082Z,22.20
2022-07-25T03:08:10.682Z,22.43
2022-07-25T03:09:11.331Z,22.68
2022-07-25T03:10:14.915Z,23.02
2022-07-25T03:11:11.604Z,22.79
2022-07-25T03:12:11.132Z,23.57
2022-07-25T03:13:10.966Z,22.88
2022-07-25T03:14:11.348Z,22.11
2022-07-25T03:15:11.093Z,22.36
2022-07-25T03:16:10.907Z,22.45
2022-07-25T03:17:11.619Z,22.17
2022-07-25T03:18:11.362Z,22.79
2022-07-25T03:19:11.321Z,22.70
2022-07-25T03:20:11.221Z,22.94
2022-07-25T03:21:10.775Z,22.99
2022-07-25T03:22:11.455Z,23.09
2022-07-25T03:23:10.695Z,23.35
2022-07-25T03:24:11.686Z,23.17
2022-07-25T03:25:25.489Z,23.57
2022-07-25T03:26:10.925Z,23.57
2022-07-25T03:27:11.393Z,23.43
2022-07-25T03:28:10.998Z,23.22
2022-07-25T03:29:10.502Z,23.34
2022-07-25T03:30:11.311Z,23.47
2022-07-25T03:31:10.716Z,23.45
2022-07-25T03:32:11.202Z,23.31
2022-07-25T03:33:10.714Z,23.07
2022-07-25T03:34:11.952Z,22.78
2022-07-25T03:35:11.710Z,21.5
2022-07-25T03:36:11.248Z,21.67
2022-07-25T03:37:10.810Z,21.86
2022-07-25T03:38:11.787Z,21.53
2022-07-25T03:39:11.234Z,21.69
2022-07-25T03:40:10.748Z,21.17
2022-07-25T03:41:10.969Z,21.38
2022-07-25T03:42:11.501Z,20.72
2022-07-25T03:43:11.017Z,21.02
2022-07-25T03:44:11.596Z,21.03
2022-07-25T03:45:11.668Z,21.37
2022-07-25T03:46:11.410Z,21.27
2022-07-25T03:47:11.628Z,21.03
2022-07-25T03:48:11.365Z,21.13
2022-07-25T03:49:11.020Z,20.95
2022-07-25T03:50:10.629Z,21.16
2022-07-25T03:51:10.953Z,21.22
2022-07-25T03:52:11.179Z,20.95
2022-07-25T03:53:14.079Z,20.87
2022-07-25T03:54:11.941Z,21.02
2022-07-25T03:55:10.705Z,20.70
2022-07-25T03:56:11.072Z,20.62
2022-07-25T03:57:10.317Z,20.63
2022-07-25T03:58:10.557Z,20.62
2022-07-25T03:59:10.683Z,20.81
2022-07-25T04:00:11.789Z,20.69
2022-07-25T04:01:14.451Z,20.59
2022-07-25T04:02:11.467Z,20.77
2022-07-25T04:03:11.217Z,20.87
2022-07-25T04:04:11.664Z,20.53
2022-07-25T04:05:11.241Z,20.73
2022-07-25T04:06:10.719Z,20.79
2022-07-25T04:07:10.918Z,21.30
2022-07-25T04:08:11.280Z,21.36
2022-07-25T04:09:10.936Z,21.64
2022-07-25T04:10:11.857Z,21.63
2022-07-25T04:11:11.338Z,21.79
2022-07-25T04:12:10.432Z,22.32
2022-07-25T04:13:10.913Z,22.27
2022-07-25T04:14:11.742Z,23.02
2022-07-25T04:15:11.571Z,22.98
2022-07-25T04:16:22.234Z,22.96
2022-07-25T04:17:13.491Z,23.36
2022-07-25T04:18:18.608Z,22.94
2022-07-25T04:19:12.286Z,22.72
2022-07-25T04:20:12.237Z,22.81
2022-07-25T04:21:12.674Z,23.20
2022-07-25T04:22:11.092Z,23.24
2022-07-25T04:23:10.964Z,23.21
2022-07-25T04:24:12.649Z,23.12
2022-07-25T04:25:11.559Z,22.71
2022-07-25T04:26:11.786Z,22.87
2022-07-25T04:27:11.428Z,23.27
2022-07-25T04:28:10.969Z,23.60
2022-07-25T04:29:11.443Z,23.64
2022-07-25T04:30:11.267Z,23.56
2022-07-25T04:31:10.929Z,23.67
2022-07-25T04:32:11.628Z,23.63
2022-07-25T04:33:11.177Z,23.54
2022-07-25T04:34:11.627Z,23.70
2022-07-25T04:35:11.142Z,23.31
2022-07-25T04:36:11.173Z,23.56
2022-07-25T04:37:10.683Z,22.87
2022-07-25T04:38:15.664Z,22.67
2022-07-25T04:39:11.386Z,22.95
2022-07-25T04:40:10.894Z,23.19
2022-07-25T04:41:11.412Z,23.68
2022-07-25T04:42:10.938Z,23.42
2022-07-25T04:43:11.314Z,23.28
2022-07-25T04:44:11.419Z,23.28
2022-07-25T04:45:11.032Z,23.21
2022-07-25T04:46:10.884Z,23.02
2022-07-25T04:47:11.335Z,23.26
2022-07-25T04:48:10.900Z,23.38
2022-07-25T04:49:11.717Z,23.12
2022-07-25T04:50:11.738Z,23.62
2022-07-25T04:51:11.335Z,23.39
2022-07-25T04:52:10.907Z,23.87
2022-07-25T04:53:11.717Z,23.35
2022-07-25T04:54:12.312Z,23.38
2022-07-25T04:55:10.879Z,23.97
2022-07-25T04:56:11.657Z,23.56
2022-07-25T04:57:11.401Z,24.04
2022-07-25T04:58:11.069Z,23.85
2022-07-25T04:59:10.980Z,24.03
2022-07-25T05:00:12.581Z,24.18
2022-07-25T05:01:10.936Z,24.62
2022-07-25T05:02:10.633Z,24.23
2022-07-25T05:03:11.547Z,24.29
2022-07-25T05:04:11.574Z,23.40
2022-07-25T05:05:25.096Z,22.53
2022-07-25T05:06:10.657Z,22.53
2022-07-25T05:07:11.153Z,22.17
2022-07-25T05:08:10.697Z,22.54
2022-07-25T05:09:11.777Z,22.34
2022-07-25T05:10:12.009Z,22.10
2022-07-25T05:11:10.735Z,22.43
2022-07-25T05:12:11.421Z,21.09
2022-07-25T05:13:10.842Z,21.5
2022-07-25T05:14:11.681Z,22.21
2022-07-25T05:15:11.587Z,22.5
2022-07-25T05:16:11.560Z,21.95
2022-07-25T05:17:11.148Z,22.40
2022-07-25T05:18:10.744Z,22.14
2022-07-25T05:19:11.186Z,21.72
2022-07-25T05:20:10.604Z,21.62
2022-07-25T05:21:11.075Z,22.28
2022-07-25T05:22:10.952Z,22.42
2022-07-25T05:23:11.023Z,21.69
2022-07-25T05:24:11.379Z,21.71
2022-07-25T05:25:11.829Z,22.13
2022-07-25T05:26:11.641Z,22.33
2022-07-25T05:27:10.968Z,22.32
2022-07-25T05:28:11.275Z,22.01
2022-07-25T05:29:10.798Z,22.02
2022-07-25T05:30:12.121Z,22.10
2022-07-25T05:31:11.186Z,21.86
2022-07-25T05:32:10.851Z,21.78
2022-07-25T05:33:11.584Z,21.99
2022-07-25T05:34:11.572Z,21.76
2022-07-25T05:35:11.649Z,21.86
2022-07-25T05:36:11.263Z,21.54
2022-07-25T05:37:10.699Z,22.20
2022-07-25T05:38:11.537Z,21.98
2022-07-25T05:39:11.160Z,21.94
2022-07-25T05:40:10.975Z,21.97
2022-07-25T05:41:11.305Z,22.38
2022-07-25T05:42:10.767Z,22.45
2022-07-25T05:43:11.381Z,22.61
2022-07-25T05:44:11.706Z,22.38
2022-07-25T05:45:11.745Z,22.72
2022-07-25T05:46:11.542Z,22.73
2022-07-25T05:47:11.424Z,22.68
2022-07-25T05:48:11.150Z,22.59
2022-07-25T05:49:11.083Z,22.23
2022-07-25T05:50:10.741Z,22.12
2022-07-25T05:51:11.272Z,22.27
2022-07-25T05:52:16.879Z,22.44
2022-07-25T05:53:11.488Z,22.70
2022-07-25T05:54:11.912Z,24.09
2022-07-25T05:55:11.832Z,24.82
2022-07-25T05:56:11.289Z,24.13
2022-07-25T05:57:10.782Z,24.72
2022-07-25T05:58:11.617Z,24.68
2022-07-25T05:59:11.280Z,24.82
2022-07-25T06:00:12.295Z,24.92
2022-07-25T06:01:10.964Z,25.01
2022-07-25T06:02:12.104Z,25.60
2022-07-25T06:03:10.732Z,25.40
2022-07-25T06:04:12.033Z,25.42
2022-07-25T06:05:11.077Z,25.37
2022-07-25T06:06:10.614Z,25.64
2022-07-25T06:07:12.183Z,25.79
2022-07-25T06:08:11.698Z,25.46
2022-07-25T06:09:11.604Z,24.79
2022-07-25T06:10:11.464Z,24.30
2022-07-25T06:11:12.978Z,24.07
2022-07-25T06:12:11.619Z,23.78
2022-07-25T06:13:13.877Z,24.20
2022-07-25T06:14:13.386Z,24.31
2022-07-25T06:15:27.051Z,24.37
2022-07-25T06:16:11.400Z,24.37
2022-07-25T06:17:10.876Z,24.69
2022-07-25T06:18:11.334Z,24.54
2022-07-25T06:19:11.258Z,24.54
2022-07-25T06:20:11.354Z,24.54
2022-07-25T06:21:10.823Z,24.71
2022-07-25T06:22:11.470Z,25.34
2022-07-25T06:23:11.278Z,25.80
2022-07-25T06:24:11.482Z,25.10
2022-07-25T06:25:11.015Z,25.46
2022-07-25T06:26:10.439Z,25.63
2022-07-25T06:27:11.110Z,25.80
2022-07-25T06:28:14.247Z,25.71
2022-07-25T06:29:10.948Z,25.79
2022-07-25T06:30:23.399Z,25.70
2022-07-25T06:31:10.992Z,25.70
2022-07-25T06:32:10.754Z,25.26
2022-07-25T06:33:11.493Z,21
2022-07-25T06:34:11.822Z,25.47
2022-07-25T06:35:11.533Z,25.37
2022-07-25T06:36:10.990Z,25.38
2022-07-25T06:37:10.753Z,25.62
2022-07-25T06:38:11.856Z,25.92
2022-07-25T06:39:11.524Z,25.27
2022-07-25T06:40:11.509Z,25.88
2022-07-25T06:41:11.689Z,25.76
2022-07-25T06:42:11.662Z,25.59
2022-07-25T06:43:12.043Z,25.77
2022-07-25T06:44:12.126Z,26.20
2022-07-25T06:45:11.122Z,25.78
2022-07-25T06:46:10.915Z,25.30
2022-07-25T06:47:11.710Z,24.31
2022-07-25T06:48:11.445Z,23.47
2022-07-25T06:49:11.293Z,23.97
2022-07-25T06:50:15.191Z,24.31
2022-07-25T06:51:11.326Z,24.39
2022-07-25T06:52:10.794Z,24.37
2022-07-25T06:53:11.786Z,24.63
2022-07-25T06:54:12.797Z,24.76
2022-07-25T06:55:11.612Z,24.44
2022-07-25T06:56:14.432Z,24.51
2022-07-25T06:57:11.295Z,24.87
2022-07-25T06:58:10.795Z,25.19
2022-07-25T06:59:11.546Z,24.64
2022-07-25T07:00:12.103Z,25.09
2022-07-25T07:01:11.087Z,24.85
2022-07-25T07:02:11.215Z,25.42
2022-07-25T07:03:11.236Z,25.12
2022-07-25T07:04:11.833Z,24.78
2022-07-25T07:05:11.947Z,24.46
2022-07-25T07:06:11.656Z,25.36
2022-07-25T07:07:11.331Z,25.13
2022-07-25T07:08:11.135Z,25.20
2022-07-25T07:09:11.155Z,25.23
2022-07-25T07:10:10.933Z,25.31
2022-07-25T07:11:11.349Z,25.70
2022-07-25T07:12:11.210Z,25.54
2022-07-25T07:13:11.229Z,26.10
2022-07-25T07:14:11.331Z,25.71
2022-07-25T07:15:10.996Z,26.04
2022-07-25T07:16:11.059Z,26.31
2022-07-25T07:17:10.777Z,25.77
2022-07-25T07:18:11.286Z,25.76
2022-07-25T07:19:11.694Z,25.81
2022-07-25T07:20:13.229Z,26.40
2022-07-25T07:21:11.244Z,26.70
2022-07-25T07:22:11.627Z,26.62
2022-07-25T07:23:12.080Z,26.47
2022-07-25T07:24:28.116Z,25.80
2022-07-25T07:25:11.981Z,25.80
2022-07-25T07:26:11.634Z,26.20
2022-07-25T07:27:11.679Z,26.01
2022-07-25T07:28:11.422Z,26.52
2022-07-25T07:29:11.644Z,26.76
2022-07-25T07:30:12.910Z,26.22
2022-07-25T07:31:21.568Z,25.92
2022-07-25T07:32:11.659Z,25.92
2022-07-25T07:33:11.845Z,26.09
2022-07-25T07:34:11.474Z,25.81
2022-07-25T07:35:11.404Z,25.80
2022-07-25T07:36:11.176Z,26.05
2022-07-25T07:37:11.404Z,25.72
2022-07-25T07:38:10.783Z,26.09
2022-07-25T07:39:12.017Z,25.73
2022-07-25T07:41:10.953Z,25.89
2022-07-25T07:42:11.641Z,25.43
2022-07-25T07:43:11.231Z,24.45
2022-07-25T07:44:11.271Z,25.53
2022-07-25T07:45:11.351Z,25.71
2022-07-25T07:46:11.180Z,26.03
2022-07-25T07:47:18.030Z,21
2022-07-25T07:48:10.903Z,26.70
2022-07-25T07:49:12.358Z,26.59
2022-07-25T07:50:11.079Z,26.06
2022-07-25T07:51:10.832Z,25.12
2022-07-25T07:52:11.601Z,25.55
2022-07-25T07:53:11.203Z,25.71
2022-07-25T07:54:10.643Z,24.28
2022-07-25T07:55:11.642Z,24.59
2022-07-25T07:56:11.021Z,25.04
2022-07-25T07:57:10.630Z,25.68
2022-07-25T07:58:11.082Z,26.12
2022-07-25T07:59:11.718Z,25.76
2022-07-25T08:00:17.116Z,25.78
2022-07-25T08:01:10.975Z,25.92
2022-07-25T08:02:11.593Z,25.88
2022-07-25T08:03:11.413Z,25.95
2022-07-25T08:04:11.509Z,26.61
2022-07-25T08:05:11.793Z,26.82
2022-07-25T08:06:11.810Z,26.81
2022-07-25T08:07:11.898Z,26.75
2022-07-25T08:08:11.888Z,26.28
2022-07-25T08:09:12.663Z,26.97
2022-07-25T08:10:11.468Z,26.96
2022-07-25T08:11:11.169Z,26.86
2022-07-25T08:12:10.877Z,26.71
2022-07-25T08:13:11.449Z,27.13
2022-07-25T08:14:11.705Z,26.44
2022-07-25T08:15:11.818Z,25.90
2022-07-25T08:16:11.922Z,26.11
2022-07-25T08:17:16.971Z,26.27
2022-07-25T08:19:11.824Z,26.87
2022-07-25T08:20:40.196Z,26.28
2022-07-25T08:21:11.059Z,26.28
2022-07-25T08:22:10.827Z,25.82
2022-07-25T08:23:11.913Z,26.73
2022-07-25T08:24:13.296Z,27.12
2022-07-25T08:25:11.129Z,26.70
2022-07-25T08:26:10.792Z,26.69
2022-07-25T08:27:11.533Z,27.15
2022-07-25T08:28:11.226Z,27.27
2022-07-25T08:29:27.754Z,27.37
2022-07-25T08:30:11.357Z,27.37
2022-07-25T08:31:11.303Z,27.46
2022-07-25T08:32:11.297Z,27.65
2022-07-25T08:33:11.253Z,27.14
2022-07-25T08:34:11.555Z,27.34
2022-07-25T08:35:15.544Z,26.37
2022-07-25T08:36:11.193Z,26.27
2022-07-25T08:37:11.212Z,25.90
2022-07-25T08:38:11.192Z,26.30
2022-07-25T08:39:11.406Z,25.92
2022-07-25T08:40:12.614Z,25.28
2022-07-25T08:41:11.469Z,22
2022-07-25T08:42:15.068Z,25.94
2022-07-25T08:43:10.821Z,26.20
2022-07-25T08:44:12.298Z,25.47
2022-07-25T08:45:11.236Z,25.45
2022-07-25T08:46:11.166Z,25.54
2022-07-25T08:47:13.405Z,26.12
2022-07-25T08:48:11.202Z,24.80
2022-07-25T08:49:11.470Z,25.28
2022-07-25T08:50:11.732Z,25.13
2022-07-25T08:51:11.672Z,25.92
2022-07-25T08:52:11.435Z,26.29
2022-07-25T08:53:36.933Z,27.37
2022-07-25T08:54:12.703Z,27.37
2022-07-25T08:55:11.011Z,28.21
2022-07-25T08:56:21.093Z,28.17
2022-07-25T08:57:11.145Z,28.46
2022-07-25T08:58:11.115Z,28.01
2022-07-25T08:59:10.714Z,28.04
2022-07-25T09:00:12.695Z,28.27
2022-07-25T09:01:11.896Z,28.02
2022-07-25T09:02:11.910Z,27.34
2022-07-25T09:03:11.917Z,27.35
2022-07-25T09:04:12.356Z,27.11
2022-07-25T09:05:11.186Z,27.40
2022-07-25T09:06:10.943Z,27.70
2022-07-25T09:07:11.932Z,23
2022-07-25T09:08:11.852Z,27.97
2022-07-25T09:09:11.921Z,27.94
2022-07-25T09:10:11.852Z,28.11
2022-07-25T09:11:11.807Z,28.51
2022-07-25T09:12:11.895Z,29.20
2022-07-25T09:13:11.860Z,28.87
2022-07-25T09:14:14.995Z,28.73
2022-07-25T09:15:11.787Z,29.02
2022-07-25T09:16:12.969Z,28.88
2022-07-25T09:17:26.408Z,29.05
2022-07-25T09:18:14.655Z,29.05
2022-07-25T09:19:10.869Z,28.98
2022-07-25T09:20:15.344Z,28.10
2022-07-25T09:21:11.114Z,27.61
2022-07-25T09:22:14.111Z,27.38
2022-07-25T09:23:11.850Z,27.73
2022-07-25T09:24:12.150Z,28.37
2022-07-25T09:25:10.814Z,28.54
2022-07-25T09:26:11.938Z,28.62
2022-07-25T09:27:12.823Z,28.69
2022-07-25T09:28:10.616Z,28.62
2022-07-25T09:29:14.588Z,28.67
2022-07-25T09:30:11.116Z,28.78
2022-07-25T09:31:11.271Z,28.55
2022-07-25T09:32:11.741Z,28.63
2022-07-25T09:33:11.547Z,28.63
2022-07-25T09:34:11.751Z,27.68
2022-07-25T09:35:11.424Z,27.38
2022-07-25T09:36:11.557Z,27.29
2022-07-25T09:37:11.628Z,27.54
2022-07-25T09:38:11.566Z,27.45
2022-07-25T09:39:11.541Z,27.70
2022-07-25T09:40:11.119Z,28.06
2022-07-25T09:41:10.942Z,27.89
2022-07-25T09:42:11.521Z,27.62
2022-07-25T09:43:11.516Z,27.96
2022-07-25T09:44:12.467Z,27.95
2022-07-25T09:45:11.514Z,27.74
2022-07-25T09:46:11.150Z,29.04
2022-07-25T09:47:10.853Z,29.23
2022-07-25T09:48:11.712Z,28.45
2022-07-25T09:49:11.785Z,27.84
2022-07-25T09:50:11.943Z,28.10
2022-07-25T09:51:11.411Z,28.32
2022-07-25T09:52:10.814Z,28.77
2022-07-25T09:53:11.693Z,29.07
2022-07-25T09:54:12.667Z,28.95
2022-07-25T09:55:11.218Z,29.13
2022-07-25T09:56:10.877Z,29.01
2022-07-25T09:57:12.019Z,24
2022-07-25T09:58:11.007Z,29.04
2022-07-25T09:59:11.285Z,29.12
2022-07-25T10:00:17.485Z,28.97
2022-07-25T10:01:11.044Z,29.13
2022-07-25T10:02:11.302Z,28.94
2022-07-25T10:03:11.590Z,29.18
2022-07-25T10:04:12.022Z,29.13
2022-07-25T10:05:11.281Z,29.23
2022-07-25T10:06:11.151Z,29.37
2022-07-25T10:07:11.132Z,29.46
2022-07-25T10:08:10.940Z,29.62
2022-07-25T10:09:11.948Z,29.52
2022-07-25T10:10:12.204Z,29.56
2022-07-25T10:11:11.111Z,28.97
2022-07-25T10:12:11.069Z,28.21
2022-07-25T10:13:14.584Z,29.55
2022-07-25T10:14:11.505Z,31.11
2022-07-25T10:15:11.847Z,31.40
2022-07-25T10:16:11.277Z,31.61
2022-07-25T10:17:11.086Z,31.01
2022-07-25T10:18:10.785Z,30.92
2022-07-25T10:19:11.736Z,30.86
2022-07-25T10:20:11.809Z,29.79
2022-07-25T10:21:29.136Z,30.60
2022-07-25T10:22:10.949Z,30.60
2022-07-25T10:23:11.758Z,31.01
2022-07-25T10:24:13.066Z,30.87
2022-07-25T10:25:11.433Z,30.35
2022-07-25T10:26:11.442Z,30.01
2022-07-25T10:27:11.291Z,30.80
2022-07-25T10:28:11.013Z,30.03
2022-07-25T10:29:10.931Z,30.37
2022-07-25T10:30:11.934Z,30.93
2022-07-25T10:31:11.107Z,31.13
2022-07-25T10:32:11.026Z,30.77
2022-07-25T10:33:10.863Z,30.81
2022-07-25T10:34:12.869Z,31.14
2022-07-25T10:35:11.807Z,31.19
2022-07-25T10:36:11.444Z,30.95
2022-07-25T10:37:11.205Z,31.02
2022-07-25T10:38:10.836Z,31.26
2022-07-25T10:39:11.765Z,30.93
2022-07-25T10:40:12.306Z,30.12
2022-07-25T10:41:11.135Z,29.79
2022-07-25T10:42:11.231Z,30.44
2022-07-25T10:43:10.925Z,30.26
2022-07-25T10:44:12.146Z,30.36
2022-07-25T10:45:11.480Z,29.79
2022-07-25T10:46:11.168Z,28.68
2022-07-25T10:47:11.479Z,28.65
2022-07-25T10:48:10.815Z,28.80
2022-07-25T10:49:12.970Z,28.73
2022-07-25T10:50:54.366Z,28.57
2022-07-25T10:51:11.417Z,28.57
2022-07-25T10:52:10.961Z,28.83
2022-07-25T10:53:11.882Z,28.70
2022-07-25T10:54:11.476Z,28.48
2022-07-25T10:55:11.424Z,27.93
2022-07-25T10:56:11.237Z,27.97
2022-07-25T10:57:11.012Z,28.19
2022-07-25T10:59:12.080Z,28.13
2022-07-25T11:00:12.117Z,28.28
2022-07-25T11:01:11.652Z,27.44
2022-07-25T11:02:11.481Z,27.12
2022-07-25T11:03:15.953Z,27.78
2022-07-25T11:04:11.420Z,27.51
2022-07-25T11:05:11.270Z,28.26
2022-07-25T11:06:11.341Z,28.92
2022-07-25T11:07:11.674Z,28.26
2022-07-25T11:08:25.743Z,27.84
2022-07-25T11:09:17.638Z,27.84
2022-07-25T11:10:11.780Z,27.23
2022-07-25T11:11:11.605Z,26.96
2022-07-25T11:12:11.259Z,26.84
2022-07-25T11:13:11.380Z,27.15
2022-07-25T11:14:10.854Z,27.20
2022-07-25T11:15:15.653Z,25.76
2022-07-25T11:16:10.948Z,26.57
2022-07-25T11:17:11.676Z,27.94
2022-07-25T11:18:11.522Z,26.34
2022-07-25T11:19:11.929Z,25.92
2022-07-25T11:20:12.337Z,25.37
2022-07-25T11:21:11.207Z,25.32
2022-07-25T11:22:11.220Z,25.04
2022-07-25T11:23:11.073Z,24.96
2022-07-25T11:24:10.812Z,25.11
2022-07-25T11:25:11.894Z,25.76
2022-07-25T11:26:11.708Z,25.15
2022-07-25T11:27:16.356Z,24.20
2022-07-25T11:28:11.092Z,25.12
2022-07-25T11:29:11.310Z,24.79
2022-07-25T11:30:11.671Z,24.97
2022-07-25T11:31:11.652Z,25.02
2022-07-25T11:32:11.538Z,24.76
2022-07-25T11:33:17.145Z,25.48
2022-07-25T11:34:11.885Z,25.82
2022-07-25T11:35:12.874Z,25.87
2022-07-25T11:36:12.531Z,26.11
2022-07-25T11:37:11.614Z,25.87
2022-07-25T11:38:11.547Z,27.01
2022-07-25T11:39:16.815Z,28.18
2022-07-25T11:40:11.692Z,28.09
2022-07-25T11:41:11.590Z,22
2022-07-25T11:42:11.469Z,26.31
2022-07-25T11:43:11.308Z,27.15
2022-07-25T11:44:11.196Z,26.79
2022-07-25T11:45:11.377Z,27.23
2022-07-25T11:46:11.469Z,27.20
2022-07-25T11:47:11.370Z,27.11
2022-07-25T11:48:11.161Z,26.93
2022-07-25T11:49:11.933Z,26.97
2022-07-25T11:50:11.676Z,27.15
2022-07-25T11:51:14.921Z,26.97
2022-07-25T11:52:12.002Z,27.12
2022-07-25T11:53:10.595Z,27.43
2022-07-25T11:54:11.346Z,26.48
2022-07-25T11:55:11.030Z,27.21
2022-07-25T11:56:44.887Z,27.95
2022-07-25T11:57:17.148Z,27.95
2022-07-25T11:58:11.289Z,28.60
2022-07-25T11:59:12.481Z,29.18
2022-07-25T12:00:12.685Z,29.04
2022-07-25T12:01:11.544Z,28.71
2022-07-25T12:02:11.627Z,28.59
2022-07-25T12:03:16.999Z,28.86
2022-07-25T12:04:11.010Z,29.04
2022-07-25T12:05:11.744Z,27.88
2022-07-25T12:06:11.814Z,28.31
2022-07-25T12:07:11.859Z,28.73
2022-07-25T12:08:11.805Z,28.95
2022-07-25T12:09:17.969Z,29.19
2022-07-25T12:10:12.301Z,28.04
2022-07-25T12:11:11.412Z,28.38
2022-07-25T12:12:11.750Z,27.47
2022-07-25T12:13:11.897Z,27.09
2022-07-25T12:14:12.162Z,25.76
2022-07-25T12:15:11.555Z,25.57
2022-07-25T12:16:11.615Z,25.59
2022-07-25T12:17:11.989Z,26.11
2022-07-25T12:18:11.774Z,26.03
2022-07-25T12:19:12.678Z,26.23
2022-07-25T12:20:14.820Z,26.53
2022-07-25T12:21:11.857Z,26.45
2022-07-25T12:22:11.966Z,25.94
2022-07-25T12:23:12.276Z,25.95
2022-07-25T12:24:11.124Z,26.18
2022-07-25T12:25:11.027Z,26.68
2022-07-25T12:26:11.090Z,26.35
2022-07-25T12:27:10.705Z,26.32
2022-07-25T12:28:11.848Z,27.13
2022-07-25T12:29:12.230Z,27.35
2022-07-25T12:30:11.330Z,27.26
2022-07-25T12:31:11.719Z,26.79
2022-07-25T12:32:11.828Z,26.45
2022-07-25T12:33:11.782Z,27.04
2022-07-25T12:34:11.583Z,27.23
2022-07-25T12:35:11.643Z,26.48
2022-07-25T12:36:12.170Z,26.81
2022-07-25T12:37:11.246Z,26.92
2022-07-25T12:38:11.551Z,25.12
2022-07-25T12:39:12.739Z,24.87
2022-07-25T12:40:11.868Z,24.43
2022-07-25T12:41:17.489Z,25.45
2022-07-25T12:42:11.962Z,25.42
2022-07-25T12:43:11.950Z,25.44
2022-07-25T12:44:12.422Z,25.59
2022-07-25T12:45:11.331Z,24.98
2022-07-25T12:46:11.492Z,25.01
2022-07-25T12:47:11.613Z,24.71
2022-07-25T12:48:11.721Z,24.91
2022-07-25T12:49:12.337Z,25.03
2022-07-25T12:50:11.734Z,24.88
2022-07-25T12:51:11.593Z,24.71
2022-07-25T12:52:11.786Z,25.02
2022-07-25T12:53:11.791Z,25.11
2022-07-25T12:54:12.191Z,24.84
2022-07-25T12:55:11.011Z,23.95
2022-07-25T12:56:10.708Z,24.70